Time;durP1;ratioP1;P1;durP2;ratioP2;P2;SDS_P1;SDS_P2;PMS_P1;PMS_P2;Temp;Humidity;BMP_temperature;BMP_pressure;BME280_temperature;BME280_humidity;BME280_pressure;Samples;Min_cycle;Max_cycle;Signal;HPM_P1;HPM_P2
2022/04/30 00:02:15;;;;;;;7.33;3.73;;;;;;;;;;5056166;28;20187;-68
2022/04/30 00:04:42;;;;;;;6.60;3.97;;;;;;;;;;5038203;28;20183;-66
2022/04/30 00:07:09;;;;;;;4.80;3.60;;;;;;;;;;5056464;28;20201;-67
2022/04/30 00:09:36;;;;;;;4.93;3.53;;;;;;;;;;5056514;28;20171;-67
2022/04/30 00:12:02;;;;;;;5.33;3.60;;;;;;;;;;5038084;28;20179;-67
2022/04/30 00:14:29;;;;;;;7.37;4.07;;;;;;;;;;5038267;28;20524;-67
2022/04/30 00:16:55;;;;;;;4.33;3.70;;;;;;;;;;5038515;28;20174;-66
2022/04/30 00:19:21;;;;;;;3.90;3.20;;;;;;;;;;5038201;28;20281;-68
2022/04/30 00:21:48;;;;;;;4.83;3.53;;;;;;;;;;5037713;28;20179;-67
2022/04/30 00:24:13;;;;;;;6.23;4.00;;;;;;;;;;5056142;28;20662;-67
2022/04/30 00:26:40;;;;;;;5.33;3.30;;;;;;;;;;5057479;28;20198;-69
2022/04/30 00:29:06;;;;;;;4.33;3.50;;;;;;;;;;5038299;28;20206;-68
2022/04/30 00:31:32;;;;;;;5.13;3.73;;;;;;;;;;5055963;28;20254;-68
2022/04/30 00:33:58;;;;;;;3.27;2.97;;;;;;;;;;5038187;28;20240;-69
2022/04/30 00:36:24;;;;;;;4.23;3.50;;;;;;;;;;5055940;28;20181;-70
2022/04/30 00:38:50;;;;;;;6.57;3.87;;;;;;;;;;5037463;28;20206;-66
2022/04/30 00:41:16;;;;;;;4.07;3.63;;;;;;;;;;5055478;28;20186;-68
2022/04/30 00:43:43;;;;;;;6.50;3.50;;;;;;;;;;5037417;28;20241;-68
2022/04/30 00:46:12;;;;;;;3.43;3.13;;;;;;;;;;5055436;28;20198;-67
2022/04/30 00:48:38;;;;;;;4.37;3.40;;;;;;;;;;5055059;28;20190;-67
2022/04/30 00:51:04;;;;;;;5.90;4.00;;;;;;;;;;5055161;28;20546;-67
2022/04/30 00:53:31;;;;;;;3.90;3.40;;;;;;;;;;5055072;28;20210;-67
2022/04/30 00:55:58;;;;;;;4.20;3.57;;;;;;;;;;5055459;28;20236;-68
2022/04/30 00:58:24;;;;;;;3.80;3.50;;;;;;;;;;5037068;28;20616;-67
2022/04/30 01:00:51;;;;;;;3.67;3.37;;;;;;;;;;5037041;28;20187;-68
2022/04/30 01:03:17;;;;;;;5.97;4.00;;;;;;;;;;5037069;28;20187;-67
2022/04/30 01:05:43;;;;;;;6.93;4.40;;;;;;;;;;5055982;28;20712;-66
2022/04/30 01:08:09;;;;;;;6.03;4.20;;;;;;;;;;5056605;28;20679;-66
2022/04/30 01:10:35;;;;;;;5.23;3.50;;;;;;;;;;5055376;28;20249;-67
2022/04/30 01:13:02;;;;;;;3.97;3.30;;;;;;;;;;5055586;28;20252;-67
2022/04/30 01:15:29;;;;;;;5.37;4.13;;;;;;;;;;5037529;28;20183;-67
2022/04/30 01:17:55;;;;;;;7.83;3.73;;;;;;;;;;5055277;28;20210;-67
2022/04/30 01:20:21;;;;;;;5.77;4.07;;;;;;;;;;5057114;28;20183;-65
2022/04/30 01:23:00;;;;;;;8.70;5.00;;;;;;;;;;5056289;28;20228;-71
2022/04/30 01:25:26;;;;;;;12.37;6.80;;;;;;;;;;5038645;28;20183;-66
2022/04/30 01:27:53;;;;;;;11.87;7.50;;;;;;;;;;5056029;28;20201;-68
2022/04/30 01:30:19;;;;;;;12.60;6.80;;;;;;;;;;5054937;28;20228;-67
2022/04/30 01:38:15;;;;;;;9.70;5.47;;;;;;;;;;5054709;28;20616;-67
2022/04/30 01:40:41;;;;;;;11.97;5.30;;;;;;;;;;5054182;28;20163;-68
2022/04/30 01:43:08;;;;;;;8.07;5.20;;;;;;;;;;5036587;28;20266;-67
2022/04/30 01:45:35;;;;;;;5.17;3.70;;;;;;;;;;5036565;28;20178;-68
2022/04/30 01:48:02;;;;;;;6.53;4.90;;;;;;;;;;5054288;28;20195;-67
2022/04/30 01:50:28;;;;;;;6.90;4.73;;;;;;;;;;5036374;28;20181;-67
2022/04/30 01:52:54;;;;;;;8.27;4.43;;;;;;;;;;5054181;28;20224;-68
2022/04/30 01:55:20;;;;;;;5.63;4.20;;;;;;;;;;5054858;28;20170;-67
2022/04/30 01:57:46;;;;;;;9.27;5.80;;;;;;;;;;5054683;28;20328;-68
2022/04/30 02:00:14;;;;;;;6.33;4.60;;;;;;;;;;5036099;28;20179;-67
2022/04/30 02:02:41;;;;;;;7.90;4.90;;;;;;;;;;5053763;28;20248;-67
2022/04/30 02:05:08;;;;;;;9.73;5.83;;;;;;;;;;5053575;28;20189;-68
2022/04/30 02:07:36;;;;;;;13.40;6.10;;;;;;;;;;5053496;28;20206;-67
2022/04/30 02:10:03;;;;;;;10.30;5.03;;;;;;;;;;5035701;28;20201;-69
2022/04/30 02:12:31;;;;;;;6.70;5.37;;;;;;;;;;5053780;28;20202;-68
2022/04/30 02:14:58;;;;;;;8.20;5.27;;;;;;;;;;5054940;28;20174;-65
2022/04/30 02:17:26;;;;;;;8.23;4.80;;;;;;;;;;5054955;28;20210;-66
2022/04/30 02:22:39;;;;;;;6.80;4.67;;;;;;;;;;5078805;22;20256;-64
2022/04/30 02:25:10;;;;;;;10.27;4.73;;;;;;;;;;5054260;28;20265;-64
2022/04/30 02:27:38;;;;;;;6.67;4.63;;;;;;;;;;5053859;28;20256;-64
2022/04/30 02:30:05;;;;;;;7.80;4.73;;;;;;;;;;5053815;28;20224;-64
2022/04/30 02:32:41;;;;;;;7.30;5.30;;;;;;;;;;5036191;28;20198;-64
2022/04/30 02:35:07;;;;;;;8.40;6.20;;;;;;;;;;5035865;28;20173;-64
2022/04/30 02:37:33;;;;;;;13.63;6.17;;;;;;;;;;5035868;28;20269;-64
2022/04/30 02:39:59;;;;;;;9.63;5.97;;;;;;;;;;5054008;28;20603;-65
2022/04/30 02:42:25;;;;;;;12.87;5.80;;;;;;;;;;5035742;28;20202;-65
2022/04/30 02:44:52;;;;;;;6.13;4.90;;;;;;;;;;5036510;28;20186;-65
2022/04/30 02:47:18;;;;;;;7.40;4.93;;;;;;;;;;5035470;28;20206;-65
2022/04/30 02:49:44;;;;;;;9.10;5.07;;;;;;;;;;5053738;28;20548;-65
2022/04/30 02:52:10;;;;;;;5.67;4.33;;;;;;;;;;5035867;28;20204;-63
2022/04/30 02:54:36;;;;;;;7.30;5.67;;;;;;;;;;5053564;28;20178;-65
2022/04/30 02:57:02;;;;;;;6.80;5.00;;;;;;;;;;5053931;28;20179;-64
2022/04/30 03:02:13;;;;;;;8.63;4.93;;;;;;;;;;5053718;28;20205;-65
2022/04/30 03:04:39;;;;;;;8.17;5.27;;;;;;;;;;5035651;28;20182;-64
2022/04/30 03:07:05;;;;;;;7.93;5.43;;;;;;;;;;5035333;28;20206;-65
2022/04/30 03:09:31;;;;;;;11.03;6.20;;;;;;;;;;5035331;28;20178;-65
2022/04/30 03:11:58;;;;;;;7.03;5.20;;;;;;;;;;5053202;28;20241;-65
2022/04/30 03:14:24;;;;;;;5.90;4.70;;;;;;;;;;5053016;28;20229;-64
2022/04/30 03:22:20;;;;;;;4.80;4.30;;;;;;;;;;5053269;28;20232;-64
2022/04/30 03:24:46;;;;;;;7.97;5.47;;;;;;;;;;5053527;28;20183;-65
2022/04/30 03:27:12;;;;;;;5.50;4.50;;;;;;;;;;5053247;28;20198;-66
2022/04/30 03:29:38;;;;;;;7.53;4.87;;;;;;;;;;5035234;28;20204;-65
2022/04/30 03:32:04;;;;;;;5.10;4.27;;;;;;;;;;5035060;28;20202;-64
2022/04/30 03:34:32;;;;;;;8.80;4.60;;;;;;;;;;5035324;28;20257;-65
2022/04/30 03:36:59;;;;;;;7.57;4.90;;;;;;;;;;5052985;28;20186;-65
2022/04/30 03:39:24;;;;;;;7.20;4.43;;;;;;;;;;5053185;28;20182;-65
2022/04/30 03:41:51;;;;;;;6.93;4.20;;;;;;;;;;5053233;28;20198;-64
2022/04/30 03:44:17;;;;;;;6.70;4.67;;;;;;;;;;5053444;28;20262;-65
2022/04/30 03:46:43;;;;;;;8.50;4.40;;;;;;;;;;5053054;28;20234;-66
2022/04/30 03:49:10;;;;;;;5.63;4.60;;;;;;;;;;5035078;28;20186;-64
2022/04/30 03:51:35;;;;;;;7.37;4.90;;;;;;;;;;5035027;28;20191;-64
2022/04/30 03:54:01;;;;;;;10.37;5.27;;;;;;;;;;5035000;28;20205;-65
2022/04/30 03:56:27;;;;;;;8.03;5.13;;;;;;;;;;5035465;28;20193;-65
2022/04/30 03:58:53;;;;;;;6.03;4.60;;;;;;;;;;5056665;28;20178;-65
2022/04/30 04:01:21;;;;;;;6.77;5.00;;;;;;;;;;5038895;28;20626;-65
2022/04/30 04:03:48;;;;;;;7.20;4.67;;;;;;;;;;5056813;28;20178;-65
2022/04/30 04:06:15;;;;;;;7.43;5.47;;;;;;;;;;5038480;28;20744;-64
2022/04/30 04:08:42;;;;;;;7.83;5.40;;;;;;;;;;5056394;28;20167;-65
2022/04/30 04:11:11;;;;;;;6.30;4.47;;;;;;;;;;5056372;28;20186;-65
2022/04/30 04:19:26;;;;;;;10.57;5.27;;;;;;;;;;5051799;28;20192;-65
2022/04/30 04:21:52;;;;;;;9.17;5.30;;;;;;;;;;5038136;28;20218;-65
2022/04/30 04:27:02;;;;;;;8.07;5.10;;;;;;;;;;5056236;28;20256;-65
2022/04/30 04:29:28;;;;;;;7.93;5.23;;;;;;;;;;5056065;28;20174;-65
2022/04/30 04:31:54;;;;;;;8.83;5.77;;;;;;;;;;5037772;28;20732;-65
2022/04/30 04:34:20;;;;;;;9.83;5.93;;;;;;;;;;5055784;28;20197;-65
2022/04/30 04:36:46;;;;;;;8.40;5.83;;;;;;;;;;5055715;28;20178;-65
2022/04/30 04:39:13;;;;;;;7.30;5.57;;;;;;;;;;5055729;28;20189;-65
2022/04/30 04:41:41;;;;;;;8.20;5.27;;;;;;;;;;5038192;28;20287;-64
2022/04/30 04:44:07;;;;;;;7.37;5.13;;;;;;;;;;5055824;28;20178;-65
2022/04/30 04:46:34;;;;;;;9.13;5.87;;;;;;;;;;5055544;28;20213;-65
2022/04/30 04:49:00;;;;;;;7.50;5.40;;;;;;;;;;5055659;28;20175;-64
2022/04/30 04:51:27;;;;;;;7.33;5.40;;;;;;;;;;5055640;28;20202;-64
2022/04/30 04:53:53;;;;;;;6.63;5.13;;;;;;;;;;5055386;28;20192;-65
2022/04/30 04:56:19;;;;;;;6.40;5.37;;;;;;;;;;5055378;28;20635;-66
2022/04/30 04:58:45;;;;;;;9.53;5.63;;;;;;;;;;5055592;28;20178;-64
2022/04/30 05:01:11;;;;;;;9.60;5.70;;;;;;;;;;5055472;28;20557;-64
2022/04/30 05:03:37;;;;;;;8.90;5.40;;;;;;;;;;5056187;28;20597;-66
2022/04/30 05:06:03;;;;;;;9.10;6.10;;;;;;;;;;5037469;28;20642;-64
2022/04/30 05:08:29;;;;;;;8.57;5.77;;;;;;;;;;5054188;28;20202;-64
2022/04/30 05:10:54;;;;;;;7.80;5.30;;;;;;;;;;5055643;28;20201;-65
2022/04/30 05:13:20;;;;;;;8.40;6.10;;;;;;;;;;5037321;28;20231;-65
2022/04/30 05:15:46;;;;;;;8.53;5.70;;;;;;;;;;5055019;28;20732;-65
2022/04/30 05:18:12;;;;;;;9.63;5.90;;;;;;;;;;5055356;28;20596;-65
2022/04/30 05:20:39;;;;;;;7.73;5.90;;;;;;;;;;5037450;28;20209;-65
2022/04/30 05:23:05;;;;;;;7.93;6.07;;;;;;;;;;5055010;28;20202;-65
2022/04/30 05:25:31;;;;;;;8.47;6.20;;;;;;;;;;5054968;28;20206;-65
2022/04/30 05:27:57;;;;;;;10.50;6.47;;;;;;;;;;5055722;28;20265;-65
2022/04/30 05:30:24;;;;;;;9.20;5.63;;;;;;;;;;5040003;28;20658;-65
2022/04/30 05:32:50;;;;;;;11.70;6.40;;;;;;;;;;5064319;28;20194;-65
2022/04/30 05:35:16;;;;;;;10.93;6.37;;;;;;;;;;5065558;28;20228;-65
2022/04/30 05:37:42;;;;;;;8.37;5.93;;;;;;;;;;5050242;28;20269;-65
2022/04/30 05:40:08;;;;;;;6.07;5.33;;;;;;;;;;5042028;28;20183;-65
2022/04/30 05:42:34;;;;;;;7.77;5.57;;;;;;;;;;5038700;28;20221;-65
2022/04/30 05:45:00;;;;;;;7.03;4.83;;;;;;;;;;5055871;28;20175;-65
2022/04/30 05:47:26;;;;;;;6.87;4.97;;;;;;;;;;5054670;28;20293;-65
2022/04/30 05:49:52;;;;;;;7.20;4.90;;;;;;;;;;5036285;28;20175;-65
2022/04/30 05:52:21;;;;;;;6.47;4.77;;;;;;;;;;5054047;28;20194;-65
2022/04/30 05:54:47;;;;;;;7.73;5.10;;;;;;;;;;5054399;28;20206;-65
2022/04/30 05:57:13;;;;;;;5.57;4.80;;;;;;;;;;5054096;28;20178;-65
2022/04/30 05:59:39;;;;;;;6.30;4.97;;;;;;;;;;5036289;28;20218;-65
2022/04/30 06:02:05;;;;;;;8.10;5.03;;;;;;;;;;5054270;28;20245;-66
2022/04/30 06:04:31;;;;;;;7.07;5.47;;;;;;;;;;5054006;28;20296;-66
2022/04/30 06:06:58;;;;;;;5.30;4.47;;;;;;;;;;5036060;28;20234;-65
2022/04/30 06:09:24;;;;;;;7.83;5.20;;;;;;;;;;5053867;28;20530;-65
2022/04/30 06:11:50;;;;;;;6.07;4.80;;;;;;;;;;5036182;28;20678;-65
2022/04/30 06:14:17;;;;;;;9.37;5.67;;;;;;;;;;5054368;28;20170;-65
2022/04/30 06:16:43;;;;;;;9.40;5.70;;;;;;;;;;5036470;28;20614;-65
2022/04/30 06:19:09;;;;;;;8.70;6.10;;;;;;;;;;5037292;28;20189;-66
2022/04/30 06:21:35;;;;;;;7.97;5.37;;;;;;;;;;5055238;28;20576;-65
2022/04/30 06:24:01;;;;;;;10.73;6.33;;;;;;;;;;5055552;28;20641;-65
2022/04/30 06:26:27;;;;;;;10.93;5.77;;;;;;;;;;5055424;28;20202;-66
2022/04/30 06:28:53;;;;;;;10.40;6.00;;;;;;;;;;5037726;28;20182;-65
2022/04/30 06:31:18;;;;;;;10.60;6.40;;;;;;;;;;5037668;28;20245;-65
2022/04/30 06:33:45;;;;;;;8.87;5.60;;;;;;;;;;5037511;28;20237;-66
2022/04/30 06:36:10;;;;;;;8.97;6.10;;;;;;;;;;5055154;28;20178;-66
2022/04/30 06:38:36;;;;;;;8.07;5.57;;;;;;;;;;5055774;28;20228;-65
2022/04/30 06:41:02;;;;;;;8.47;6.33;;;;;;;;;;5055720;28;20182;-65
2022/04/30 06:43:28;;;;;;;8.83;5.93;;;;;;;;;;5054721;28;20277;-66
2022/04/30 06:45:54;;;;;;;10.43;5.47;;;;;;;;;;5054705;28;20658;-66
2022/04/30 06:48:20;;;;;;;8.27;5.97;;;;;;;;;;5054348;28;20265;-65
2022/04/30 06:50:47;;;;;;;7.10;5.60;;;;;;;;;;5036515;28;20174;-66
2022/04/30 06:58:53;;;;;;;9.17;6.40;;;;;;;;;;5054509;28;20181;-63
2022/04/30 07:03:48;;;;;;;6.50;5.20;;;;;;;;;;5054472;28;20661;-66
2022/04/30 07:06:15;;;;;;;8.47;5.87;;;;;;;;;;5053914;28;20284;-65
2022/04/30 07:08:41;;;;;;;8.40;5.47;;;;;;;;;;5036589;28;20309;-65
2022/04/30 07:11:08;;;;;;;8.27;5.30;;;;;;;;;;5035882;28;20194;-64
2022/04/30 07:13:34;;;;;;;6.30;3.93;;;;;;;;;;5035908;28;20264;-65
2022/04/30 07:16:00;;;;;;;8.93;5.30;;;;;;;;;;5054593;28;20217;-66
2022/04/30 07:18:26;;;;;;;10.87;4.60;;;;;;;;;;5036936;28;20186;-65
2022/04/30 07:20:53;;;;;;;7.47;4.47;;;;;;;;;;5057072;28;20265;-66
2022/04/30 07:23:19;;;;;;;7.30;4.93;;;;;;;;;;5056583;28;20218;-65
2022/04/30 07:25:45;;;;;;;5.77;4.97;;;;;;;;;;5037562;28;20284;-66
2022/04/30 07:28:11;;;;;;;5.63;4.57;;;;;;;;;;5055476;28;20175;-66
2022/04/30 07:30:37;;;;;;;6.37;4.33;;;;;;;;;;5037124;28;20185;-65
2022/04/30 07:33:03;;;;;;;6.40;4.63;;;;;;;;;;5058205;28;20313;-66
2022/04/30 07:35:29;;;;;;;8.60;4.97;;;;;;;;;;5057512;28;20170;-66
2022/04/30 07:37:55;;;;;;;7.30;5.27;;;;;;;;;;5057906;28;20661;-65
2022/04/30 07:40:21;;;;;;;10.23;5.37;;;;;;;;;;5040167;28;20611;-67
2022/04/30 07:42:47;;;;;;;6.93;5.10;;;;;;;;;;5057387;28;20538;-67
2022/04/30 07:45:13;;;;;;;6.33;4.63;;;;;;;;;;5040227;28;20210;-65
2022/04/30 07:47:39;;;;;;;12.57;4.90;;;;;;;;;;5038984;28;20241;-65
2022/04/30 07:50:05;;;;;;;7.40;5.20;;;;;;;;;;5057221;28;20163;-65
2022/04/30 07:52:32;;;;;;;8.57;6.03;;;;;;;;;;5057301;28;20285;-66
2022/04/30 07:54:58;;;;;;;7.20;5.00;;;;;;;;;;5040157;28;20178;-66
2022/04/30 07:57:25;;;;;;;6.53;3.83;;;;;;;;;;5039780;28;20276;-65
2022/04/30 07:59:51;;;;;;;5.10;3.43;;;;;;;;;;5057853;28;20589;-65
2022/04/30 08:02:17;;;;;;;3.87;3.47;;;;;;;;;;5058079;28;20329;-65
2022/04/30 08:04:43;;;;;;;5.63;3.80;;;;;;;;;;5057452;28;20190;-65
2022/04/30 08:07:09;;;;;;;5.43;3.83;;;;;;;;;;5039745;28;20693;-66
2022/04/30 08:09:35;;;;;;;5.77;4.13;;;;;;;;;;5057179;28;20183;-65
2022/04/30 08:12:01;;;;;;;5.30;3.80;;;;;;;;;;5056935;28;20194;-65
2022/04/30 08:14:27;;;;;;;4.50;3.63;;;;;;;;;;5039163;28;20266;-63
2022/04/30 08:16:54;;;;;;;3.87;3.13;;;;;;;;;;5057081;28;20210;-65
2022/04/30 08:19:20;;;;;;;4.30;3.57;;;;;;;;;;5056740;28;20174;-66
2022/04/30 08:21:48;;;;;;;4.40;3.43;;;;;;;;;;5056644;28;20268;-65
2022/04/30 08:24:14;;;;;;;3.83;3.40;;;;;;;;;;5057342;28;20177;-66
2022/04/30 08:26:40;;;;;;;5.33;3.37;;;;;;;;;;5056657;28;20198;-65
2022/04/30 08:29:07;;;;;;;4.93;3.53;;;;;;;;;;5056397;28;20174;-66
2022/04/30 08:31:33;;;;;;;4.53;3.27;;;;;;;;;;5056727;28;20199;-66
2022/04/30 08:33:59;;;;;;;6.10;3.80;;;;;;;;;;5057065;28;20178;-65
2022/04/30 08:36:25;;;;;;;3.70;3.40;;;;;;;;;;5040557;28;20178;-67
2022/04/30 08:38:51;;;;;;;4.77;3.07;;;;;;;;;;5057887;28;20178;-65
2022/04/30 08:41:17;;;;;;;4.47;3.43;;;;;;;;;;5057990;28;20245;-64
2022/04/30 08:43:45;;;;;;;3.40;3.10;;;;;;;;;;5057197;28;20174;-65
2022/04/30 08:46:11;;;;;;;4.17;3.40;;;;;;;;;;5040809;28;20213;-64
2022/04/30 08:48:37;;;;;;;4.17;3.27;;;;;;;;;;5038544;28;20170;-64
2022/04/30 08:51:03;;;;;;;4.73;3.20;;;;;;;;;;5056400;28;20196;-64
2022/04/30 08:53:29;;;;;;;3.43;3.10;;;;;;;;;;5056117;28;20658;-65
2022/04/30 08:55:55;;;;;;;5.50;3.13;;;;;;;;;;5056194;28;20175;-65
2022/04/30 08:58:21;;;;;;;3.90;3.30;;;;;;;;;;5055920;28;20178;-64
2022/04/30 09:00:48;;;;;;;3.73;3.00;;;;;;;;;;5037959;28;20325;-65
2022/04/30 09:03:18;;;;;;;6.53;2.97;;;;;;;;;;5055510;28;20563;-65
2022/04/30 09:05:44;;;;;;;5.23;3.10;;;;;;;;;;5055513;28;20201;-65
2022/04/30 09:08:10;;;;;;;3.50;2.70;;;;;;;;;;5055760;28;20649;-67
2022/04/30 09:10:37;;;;;;;4.10;2.93;;;;;;;;;;5055931;28;20174;-65
2022/04/30 09:13:17;;;;;;;4.57;2.80;;;;;;;;;;5055261;28;20646;-65
2022/04/30 09:15:44;;;;;;;3.53;3.13;;;;;;;;;;5055514;28;20182;-64
2022/04/30 09:18:11;;;;;;;7.97;4.13;;;;;;;;;;5055772;28;20206;-65
2022/04/30 09:20:42;;;;;;;5.93;3.47;;;;;;;;;;5055461;28;20639;-65
2022/04/30 09:23:09;;;;;;;3.13;2.83;;;;;;;;;;5055197;28;20594;-65
2022/04/30 09:25:35;;;;;;;3.10;2.77;;;;;;;;;;5055458;28;20170;-65
2022/04/30 09:28:01;;;;;;;3.93;3.07;;;;;;;;;;5037751;28;20305;-65
2022/04/30 09:30:32;;;;;;;3.17;2.87;;;;;;;;;;5055474;28;20689;-65
2022/04/30 09:33:03;;;;;;;3.77;2.53;;;;;;;;;;5055469;28;20194;-64
2022/04/30 09:38:14;;;;;;;4.63;2.90;;;;;;;;;;5055425;28;20209;-65
2022/04/30 09:40:40;;;;;;;2.67;2.47;;;;;;;;;;5055150;28;20179;-65
2022/04/30 09:43:15;;;;;;;3.73;2.60;;;;;;;;;;5055835;28;20198;-65
2022/04/30 09:45:41;;;;;;;3.10;2.80;;;;;;;;;;5055657;28;20164;-65
2022/04/30 09:56:51;;;;;;;3.17;2.87;;;;;;;;;;5055242;28;20228;-65
2022/04/30 09:59:17;;;;;;;3.30;2.80;;;;;;;;;;5035262;28;20190;-65
2022/04/30 10:01:44;;;;;;;3.30;2.73;;;;;;;;;;5055447;28;20229;-65
2022/04/30 10:04:11;;;;;;;3.47;2.90;;;;;;;;;;5055168;28;20699;-65
2022/04/30 10:06:45;;;;;;;3.83;2.87;;;;;;;;;;5037184;28;20210;-65
2022/04/30 10:09:13;;;;;;;2.67;2.47;;;;;;;;;;5055936;28;20166;-65
2022/04/30 10:11:47;;;;;;;3.07;2.77;;;;;;;;;;5036929;28;20198;-66
2022/04/30 10:14:30;;;;;;;5.00;3.00;;;;;;;;;;5055803;28;20161;-67
2022/04/30 10:17:12;;;;;;;4.17;2.53;;;;;;;;;;5055020;28;20217;-66
2022/04/30 10:19:38;;;;;;;3.83;2.70;;;;;;;;;;5037293;28;20277;-65
2022/04/30 10:22:15;;;;;;;7.50;2.60;;;;;;;;;;5054596;28;20221;-65
2022/04/30 10:24:42;;;;;;;3.97;2.80;;;;;;;;;;5054934;28;20178;-64
2022/04/30 10:27:08;;;;;;;2.50;1.90;;;;;;;;;;5054722;28;20217;-65
2022/04/30 10:29:34;;;;;;;3.17;2.27;;;;;;;;;;5054459;28;20174;-64
2022/04/30 10:32:00;;;;;;;3.00;2.30;;;;;;;;;;5036102;28;20240;-64
2022/04/30 10:34:32;;;;;;;2.50;2.30;;;;;;;;;;5054347;28;20232;-64
2022/04/30 10:37:02;;;;;;;2.87;2.40;;;;;;;;;;5054373;28;20186;-64
2022/04/30 10:39:28;;;;;;;3.07;2.23;;;;;;;;;;5054191;28;20190;-64
2022/04/30 10:41:54;;;;;;;3.40;2.80;;;;;;;;;;5036953;28;20252;-64
2022/04/30 10:44:30;;;;;;;2.47;2.27;;;;;;;;;;5054367;28;20186;-65
2022/04/30 10:46:56;;;;;;;3.93;2.60;;;;;;;;;;5054632;28;20198;-64
2022/04/30 10:49:22;;;;;;;4.50;2.47;;;;;;;;;;5037103;28;20529;-65
2022/04/30 10:51:54;;;;;;;3.17;2.20;;;;;;;;;;5036648;28;20209;-65
2022/04/30 10:54:21;;;;;;;2.57;2.33;;;;;;;;;;5036247;28;20182;-65
2022/04/30 10:56:47;;;;;;;3.40;2.67;;;;;;;;;;5054486;28;20686;-65
2022/04/30 10:59:21;;;;;;;3.57;2.77;;;;;;;;;;5054771;28;20261;-65
2022/04/30 11:01:48;;;;;;;5.83;2.60;;;;;;;;;;5037264;28;20264;-65
2022/04/30 11:04:18;;;;;;;2.60;2.27;;;;;;;;;;5057068;28;20182;-66
2022/04/30 11:06:44;;;;;;;2.40;2.20;;;;;;;;;;5061308;28;20284;-66
2022/04/30 11:09:10;;;;;;;2.20;2.00;;;;;;;;;;5067620;28;20591;-65
2022/04/30 11:11:37;;;;;;;5.00;2.10;;;;;;;;;;5067572;28;20195;-65
2022/04/30 11:14:05;;;;;;;2.63;2.43;;;;;;;;;;5067310;28;20177;-64
2022/04/30 11:16:42;;;;;;;3.63;2.43;;;;;;;;;;5063677;28;20218;-65
2022/04/30 11:19:10;;;;;;;2.53;2.27;;;;;;;;;;5058363;28;20189;-65
2022/04/30 11:21:49;;;;;;;4.20;2.20;;;;;;;;;;5040081;28;20222;-66
2022/04/30 11:24:23;;;;;;;3.53;2.70;;;;;;;;;;5040158;28;20277;-65
2022/04/30 11:26:53;;;;;;;2.63;2.43;;;;;;;;;;5058124;28;20704;-65
2022/04/30 11:29:19;;;;;;;2.60;2.40;;;;;;;;;;5057596;28;20159;-65
2022/04/30 11:31:45;;;;;;;3.80;2.30;;;;;;;;;;5039859;28;20618;-66
2022/04/30 11:34:18;;;;;;;3.03;2.73;;;;;;;;;;5057583;28;20553;-65
2022/04/30 11:36:45;;;;;;;3.23;2.63;;;;;;;;;;5057336;28;20635;-66
2022/04/30 11:39:11;;;;;;;2.53;2.33;;;;;;;;;;5057552;28;20217;-65
2022/04/30 11:41:38;;;;;;;4.10;2.50;;;;;;;;;;5039751;28;20202;-64
2022/04/30 11:44:04;;;;;;;2.53;2.00;;;;;;;;;;5039869;28;20183;-67
2022/04/30 11:46:30;;;;;;;2.20;2.03;;;;;;;;;;5039961;28;20203;-65
2022/04/30 11:48:56;;;;;;;2.10;1.90;;;;;;;;;;5039017;28;20189;-66
2022/04/30 11:51:24;;;;;;;3.27;2.90;;;;;;;;;;5057410;28;20213;-65
2022/04/30 11:53:50;;;;;;;2.07;1.80;;;;;;;;;;5057447;28;20174;-66
2022/04/30 11:56:16;;;;;;;2.10;1.97;;;;;;;;;;5057501;28;20181;-65
2022/04/30 11:58:45;;;;;;;1.50;1.40;;;;;;;;;;5039512;28;20190;-65
2022/04/30 12:01:21;;;;;;;1.90;1.80;;;;;;;;;;5058517;28;20175;-63
2022/04/30 12:03:47;;;;;;;2.30;2.10;;;;;;;;;;5039767;28;20204;-66
2022/04/30 12:06:14;;;;;;;3.60;2.10;;;;;;;;;;5057328;28;20809;-65
2022/04/30 12:08:40;;;;;;;2.93;1.70;;;;;;;;;;5057531;28;20245;-67
2022/04/30 12:11:06;;;;;;;1.70;1.60;;;;;;;;;;5057798;28;20171;-65
2022/04/30 12:13:32;;;;;;;2.00;1.73;;;;;;;;;;5057610;28;20301;-65
2022/04/30 12:16:02;;;;;;;3.27;1.97;;;;;;;;;;5057556;28;20179;-65
2022/04/30 12:27:03;;;;;;;2.07;1.83;;;;;;;;;;5057815;28;20233;-65
2022/04/30 12:29:30;;;;;;;2.30;2.10;;;;;;;;;;5056416;28;20190;-65
2022/04/30 12:31:56;;;;;;;2.07;1.90;;;;;;;;;;5056341;28;20554;-65
2022/04/30 12:34:25;;;;;;;2.20;2.10;;;;;;;;;;5056115;28;20202;-64
2022/04/30 12:36:58;;;;;;;2.17;2.00;;;;;;;;;;5055891;28;20174;-65
2022/04/30 12:39:24;;;;;;;2.83;2.13;;;;;;;;;;5055852;28;20187;-65
2022/04/30 12:41:51;;;;;;;1.80;1.70;;;;;;;;;;5056215;28;20201;-65
2022/04/30 12:44:17;;;;;;;2.43;2.03;;;;;;;;;;5056003;28;20183;-65
2022/04/30 12:46:47;;;;;;;3.10;1.90;;;;;;;;;;5055727;28;20252;-67
2022/04/30 12:49:13;;;;;;;3.60;2.33;;;;;;;;;;5037961;28;20174;-68
2022/04/30 12:51:40;;;;;;;2.30;2.10;;;;;;;;;;5037461;28;20210;-64
2022/04/30 12:54:13;;;;;;;2.33;2.00;;;;;;;;;;5055799;28;20178;-65
2022/04/30 12:56:43;;;;;;;2.50;1.83;;;;;;;;;;5055695;28;20165;-66
2022/04/30 12:59:10;;;;;;;2.27;2.07;;;;;;;;;;5055512;28;20182;-65
2022/04/30 13:01:37;;;;;;;1.80;1.70;;;;;;;;;;5055927;28;20198;-65
2022/04/30 13:04:03;;;;;;;2.00;1.80;;;;;;;;;;5055552;28;20548;-65
2022/04/30 13:06:30;;;;;;;1.90;1.80;;;;;;;;;;5055699;28;20257;-65
2022/04/30 13:14:29;;;;;;;1.90;1.80;;;;;;;;;;5055346;28;20293;-67
2022/04/30 13:16:55;;;;;;;2.40;1.63;;;;;;;;;;5055591;28;20178;-65
2022/04/30 13:19:21;;;;;;;1.77;1.67;;;;;;;;;;5055080;28;20197;-64
2022/04/30 13:21:47;;;;;;;2.97;1.90;;;;;;;;;;5055402;28;20186;-64
2022/04/30 13:24:16;;;;;;;1.70;1.60;;;;;;;;;;5055552;28;20182;-64
2022/04/30 13:26:43;;;;;;;5.83;1.73;;;;;;;;;;5055208;28;20202;-65
2022/04/30 13:29:10;;;;;;;2.03;1.83;;;;;;;;;;5036042;28;20538;-65
2022/04/30 13:31:37;;;;;;;3.03;1.63;;;;;;;;;;5054674;28;20560;-66
2022/04/30 13:34:03;;;;;;;3.40;1.83;;;;;;;;;;5036690;28;20594;-65
2022/04/30 13:36:31;;;;;;;1.90;1.80;;;;;;;;;;5054745;28;20182;-65
2022/04/30 13:38:58;;;;;;;1.60;1.50;;;;;;;;;;5054738;28;20178;-65
2022/04/30 13:41:24;;;;;;;3.17;2.07;;;;;;;;;;5036944;28;20568;-65
2022/04/30 13:43:50;;;;;;;2.47;1.53;;;;;;;;;;5036604;28;20179;-65
2022/04/30 13:46:16;;;;;;;1.80;1.70;;;;;;;;;;5054444;28;20213;-65
2022/04/30 13:48:42;;;;;;;2.00;1.80;;;;;;;;;;5054415;28;20181;-65
2022/04/30 13:51:08;;;;;;;1.70;1.60;;;;;;;;;;5054250;28;20286;-65
2022/04/30 13:53:34;;;;;;;1.90;1.77;;;;;;;;;;5054296;28;20171;-66
2022/04/30 13:56:00;;;;;;;2.43;1.87;;;;;;;;;;5036322;28;20643;-66
2022/04/30 13:58:26;;;;;;;2.37;2.00;;;;;;;;;;5054468;28;20699;-66
2022/04/30 14:00:52;;;;;;;2.30;2.07;;;;;;;;;;5054645;28;20229;-66
2022/04/30 14:03:18;;;;;;;2.17;2.00;;;;;;;;;;5054997;28;20629;-66
2022/04/30 14:05:44;;;;;;;2.53;2.27;;;;;;;;;;5054260;28;20224;-67
2022/04/30 14:08:12;;;;;;;2.57;2.10;;;;;;;;;;5054095;28;20210;-67
2022/04/30 14:10:38;;;;;;;3.57;2.53;;;;;;;;;;5054052;28;20248;-65
2022/04/30 14:15:50;;;;;;;3.07;2.50;;;;;;;;;;5054053;28;20197;-69
2022/04/30 14:18:16;;;;;;;3.27;2.40;;;;;;;;;;5054688;28;20178;-65
2022/04/30 14:20:43;;;;;;;2.67;2.40;;;;;;;;;;5053758;28;20605;-67
2022/04/30 14:23:11;;;;;;;3.73;2.40;;;;;;;;;;5054175;28;20190;-67
2022/04/30 14:25:38;;;;;;;3.97;2.53;;;;;;;;;;5054185;28;20182;-64
2022/04/30 14:28:04;;;;;;;3.87;2.70;;;;;;;;;;5053541;28;20244;-65
2022/04/30 14:30:30;;;;;;;2.47;2.27;;;;;;;;;;5053668;28;20201;-65
2022/04/30 14:32:56;;;;;;;2.47;2.10;;;;;;;;;;5054111;28;20179;-66
2022/04/30 14:35:23;;;;;;;2.37;2.13;;;;;;;;;;5053798;28;20304;-66
2022/04/30 14:37:49;;;;;;;2.93;2.60;;;;;;;;;;5035743;28;20365;-66
2022/04/30 14:40:15;;;;;;;2.80;2.40;;;;;;;;;;5053401;28;20234;-64
2022/04/30 14:42:41;;;;;;;2.70;2.50;;;;;;;;;;5053917;28;20186;-66
2022/04/30 14:45:08;;;;;;;3.57;2.67;;;;;;;;;;5053520;28;20178;-65
2022/04/30 14:47:34;;;;;;;2.93;2.60;;;;;;;;;;5053435;28;20638;-65
2022/04/30 14:50:00;;;;;;;3.30;2.90;;;;;;;;;;5053582;28;20237;-65
2022/04/30 14:52:26;;;;;;;4.77;3.13;;;;;;;;;;5053659;28;20244;-64
2022/04/30 14:54:52;;;;;;;3.73;3.30;;;;;;;;;;5035605;28;20179;-65
2022/04/30 14:57:18;;;;;;;3.90;3.40;;;;;;;;;;5053492;28;20175;-64
2022/04/30 14:59:44;;;;;;;3.87;3.40;;;;;;;;;;5053483;28;20233;-65
2022/04/30 15:02:10;;;;;;;3.70;3.40;;;;;;;;;;5035258;28;20224;-66
2022/04/30 15:04:36;;;;;;;3.87;3.10;;;;;;;;;;5053477;28;20204;-65
2022/04/30 15:07:02;;;;;;;3.23;2.93;;;;;;;;;;5053227;28;20698;-65
2022/04/30 15:09:28;;;;;;;4.00;3.27;;;;;;;;;;5053302;28;20657;-65
2022/04/30 15:11:54;;;;;;;3.53;3.20;;;;;;;;;;5053025;28;20182;-67
2022/04/30 15:14:20;;;;;;;3.63;3.33;;;;;;;;;;5036926;28;20174;-65
2022/04/30 15:16:46;;;;;;;4.93;3.80;;;;;;;;;;5035052;28;20206;-64
2022/04/30 15:19:13;;;;;;;5.83;4.27;;;;;;;;;;5034979;28;20186;-65
2022/04/30 15:21:38;;;;;;;5.90;3.50;;;;;;;;;;5035129;28;20655;-64
2022/04/30 15:24:05;;;;;;;4.80;3.57;;;;;;;;;;5034762;28;20224;-65
2022/04/30 15:26:31;;;;;;;5.63;3.53;;;;;;;;;;5053281;28;20230;-66
2022/04/30 15:28:57;;;;;;;4.43;3.50;;;;;;;;;;5035054;28;20179;-66
2022/04/30 15:31:23;;;;;;;7.13;4.17;;;;;;;;;;5035002;28;20218;-66
2022/04/30 15:33:49;;;;;;;7.30;3.90;;;;;;;;;;5035031;28;20182;-66
2022/04/30 15:36:15;;;;;;;4.13;3.43;;;;;;;;;;5035138;28;20189;-65
2022/04/30 15:38:41;;;;;;;3.93;3.40;;;;;;;;;;5052888;28;20178;-65
2022/04/30 15:41:08;;;;;;;3.83;3.53;;;;;;;;;;5053084;28;20201;-65
2022/04/30 15:43:35;;;;;;;3.50;2.80;;;;;;;;;;5053053;28;20257;-66